Time;durP1;ratioP1;P1;durP2;ratioP2;P2;SDS_P1;SDS_P2;PMS_P1;PMS_P2;Temp;Humidity;BMP_temperature;BMP_pressure;BME280_temperature;BME280_humidity;BME280_pressure;Samples;Min_cycle;Max_cycle;Signal;HPM_P1;HPM_P2
2021/04/11 00:00:29;;;;;;;2.05;1.85;;;17.00;55.70;;;;;;6213671;23;20429;-73
2021/04/11 00:02:56;;;;;;;2.08;1.60;;;17.00;55.60;;;;;;6213629;23;20461;-73
2021/04/11 00:05:26;;;;;;;3.08;1.92;;;17.00;55.70;;;;;;6187030;23;20329;-73
2021/04/11 00:07:52;;;;;;;2.53;1.75;;;17.00;55.70;;;;;;6213591;23;20009;-73
2021/04/11 00:10:23;;;;;;;2.15;1.83;;;17.00;55.80;;;;;;6213113;23;20499;-73
2021/04/11 00:12:48;;;;;;;2.03;1.83;;;17.00;55.80;;;;;;6213500;23;20357;-73
2021/04/11 00:15:15;;;;;;;1.98;1.80;;;16.90;55.80;;;;;;6213539;23;19997;-73
2021/04/11 00:17:40;;;;;;;2.13;1.30;;;16.90;55.80;;;;;;6213165;23;20011;-73
2021/04/11 00:20:07;;;;;;;2.03;1.63;;;16.90;55.80;;;;;;6214446;23;20005;-73
2021/04/11 00:22:33;;;;;;;2.20;1.90;;;16.90;55.80;;;;;;6215098;23;20009;-73
2021/04/11 00:24:58;;;;;;;2.38;2.03;;;16.80;55.80;;;;;;6214897;23;20055;-73
2021/04/11 00:27:24;;;;;;;2.47;2.05;;;16.80;55.70;;;;;;6215390;23;20028;-73
2021/04/11 00:29:50;;;;;;;1.88;1.75;;;16.80;55.80;;;;;;6215493;23;20066;-73
2021/04/11 00:32:15;;;;;;;2.58;1.58;;;16.80;55.80;;;;;;6215316;23;20482;-73
2021/04/11 00:34:41;;;;;;;1.90;1.67;;;16.80;55.80;;;;;;6215112;23;20012;-73
2021/04/11 00:37:07;;;;;;;2.13;1.77;;;16.80;55.70;;;;;;6214929;23;20434;-73
2021/04/11 00:39:33;;;;;;;2.85;1.90;;;16.80;55.70;;;;;;6214416;23;20055;-73
2021/04/11 00:42:04;;;;;;;1.95;1.75;;;16.70;55.70;;;;;;6214794;23;20012;-73
2021/04/11 00:44:30;;;;;;;2.03;1.75;;;16.70;55.70;;;;;;6188373;23;20323;-73
2021/04/11 00:46:57;;;;;;;2.50;2.05;;;16.70;55.70;;;;;;6214997;23;20076;-74
2021/04/11 00:49:34;;;;;;;2.17;1.80;;;16.70;55.70;;;;;;6215356;23;20007;-73
2021/04/11 00:52:06;;;;;;;1.90;1.70;;;16.70;55.70;;;;;;6188223;23;20004;-73
2021/04/11 00:54:32;;;;;;;2.00;1.70;;;16.70;55.70;;;;;;6215175;23;20076;-74
2021/04/11 00:57:00;;;;;;;2.17;1.70;;;16.60;55.70;;;;;;6215049;23;20017;-73
2021/04/11 00:59:26;;;;;;;2.03;1.73;;;16.60;55.80;;;;;;6214849;23;20315;-74
2021/04/11 01:01:52;;;;;;;2.53;1.90;;;16.60;55.80;;;;;;6215257;23;20091;-73
2021/04/11 01:04:18;;;;;;;3.35;1.70;;;16.60;55.70;;;;;;6214764;23;20479;-73
2021/04/11 01:06:52;;;;;;;2.00;1.80;;;16.60;55.80;;;;;;6214963;23;20005;-73
2021/04/11 01:09:35;;;;;;;2.25;1.92;;;16.50;55.70;;;;;;6214832;23;20333;-73
2021/04/11 01:12:04;;;;;;;1.85;1.65;;;16.50;55.70;;;;;;6187946;23;20448;-73
2021/04/11 01:14:31;;;;;;;1.98;1.50;;;16.50;55.70;;;;;;6214549;23;20077;-73
2021/04/11 01:16:57;;;;;;;2.38;2.17;;;16.50;55.80;;;;;;6214726;23;20422;-73
2021/04/11 01:19:27;;;;;;;1.73;1.50;;;16.50;55.70;;;;;;6215676;23;20060;-73
2021/04/11 01:22:31;;;;;;;2.00;1.80;;;16.40;55.70;;;;;;6215228;23;20015;-73
2021/04/11 01:25:00;;;;;;;1.55;1.45;;;16.50;55.70;;;;;;6214850;23;20008;-73
2021/04/11 01:27:32;;;;;;;2.08;1.52;;;16.40;55.70;;;;;;6214996;23;20043;-73
2021/04/11 01:29:59;;;;;;;2.60;1.55;;;16.40;56.30;;;;;;6214363;23;20445;-73
2021/04/11 01:32:26;;;;;;;1.80;1.40;;;16.40;55.70;;;;;;6214760;23;20083;-73
2021/04/11 01:34:56;;;;;;;1.38;1.20;;;16.40;55.70;;;;;;6214539;23;20076;-73
2021/04/11 01:37:26;;;;;;;1.75;1.45;;;16.30;55.70;;;;;;6214402;23;20012;-73
2021/04/11 01:39:52;;;;;;;1.73;1.42;;;16.40;55.70;;;;;;6214273;23;20008;-73
2021/04/11 01:42:19;;;;;;;1.58;1.38;;;16.30;55.70;;;;;;6214518;23;20013;-73
2021/04/11 01:44:49;;;;;;;1.85;1.67;;;16.30;55.70;;;;;;6214686;23;20001;-73
2021/04/11 01:47:16;;;;;;;2.40;1.50;;;16.30;55.70;;;;;;6214635;23;20011;-73
2021/04/11 01:49:43;;;;;;;1.70;1.60;;;16.30;55.70;;;;;;6214408;23;20059;-73
2021/04/11 01:52:23;;;;;;;1.30;1.20;;;16.30;55.70;;;;;;6214260;23;20034;-72
2021/04/11 01:54:49;;;;;;;2.08;1.75;;;16.30;55.70;;;;;;6214519;23;19993;-73
2021/04/11 01:57:25;;;;;;;1.73;1.23;;;16.30;55.70;;;;;;6214569;23;20000;-73
2021/04/11 01:59:59;;;;;;;1.60;1.38;;;16.20;55.60;;;;;;6214273;23;20004;-73
2021/04/11 02:02:25;;;;;;;1.77;1.52;;;16.20;55.60;;;;;;6214503;23;20015;-73
2021/04/11 02:04:51;;;;;;;1.40;1.30;;;16.20;55.70;;;;;;6213771;23;20000;-73
2021/04/11 02:07:17;;;;;;;1.60;1.33;;;16.20;55.70;;;;;;6187910;23;20015;-73
2021/04/11 02:09:47;;;;;;;1.58;1.40;;;16.20;55.60;;;;;;6214335;23;20000;-73
2021/04/11 02:12:17;;;;;;;2.70;1.60;;;16.20;55.50;;;;;;6214462;23;19997;-73
2021/04/11 02:14:44;;;;;;;2.78;1.50;;;16.10;55.50;;;;;;6187625;23;20346;-73
2021/04/11 02:17:15;;;;;;;1.98;1.75;;;16.10;55.50;;;;;;6214105;23;20003;-73
2021/04/11 02:19:41;;;;;;;1.75;1.55;;;16.10;55.60;;;;;;6214302;23;20000;-73
2021/04/11 02:22:17;;;;;;;2.70;2.15;;;16.10;55.60;;;;;;6214213;23;20001;-73
2021/04/11 02:24:44;;;;;;;1.33;1.17;;;16.10;55.60;;;;;;6214668;23;20004;-73
2021/04/11 02:27:13;;;;;;;1.75;1.33;;;16.10;55.60;;;;;;6213775;23;20020;-73
2021/04/11 02:29:39;;;;;;;1.70;1.23;;;16.10;55.60;;;;;;6213659;23;20349;-73
2021/04/11 02:32:05;;;;;;;1.90;1.52;;;16.10;55.60;;;;;;6213672;23;19998;-73
2021/04/11 02:34:33;;;;;;;2.08;1.38;;;16.10;55.60;;;;;;6214006;23;20376;-73
2021/04/11 02:37:13;;;;;;;1.50;1.08;;;16.10;55.60;;;;;;6214440;23;20429;-74
2021/04/11 02:39:41;;;;;;;1.27;1.17;;;16.00;56.10;;;;;;6214022;23;20008;-73
2021/04/11 02:42:14;;;;;;;1.67;1.23;;;16.00;55.50;;;;;;6213406;23;20158;-73
2021/04/11 02:44:42;;;;;;;2.67;1.63;;;16.00;55.50;;;;;;6187291;23;20059;-73
2021/04/11 02:47:09;;;;;;;1.27;1.05;;;16.00;55.50;;;;;;6214240;23;20054;-73
2021/04/11 02:49:35;;;;;;;1.30;1.20;;;16.00;55.50;;;;;;6213772;23;20067;-73
2021/04/11 02:52:08;;;;;;;1.92;1.15;;;16.00;55.50;;;;;;6214265;23;20392;-73
2021/04/11 02:54:36;;;;;;;1.50;1.30;;;16.00;55.50;;;;;;6213885;23;20080;-73
2021/04/11 02:57:04;;;;;;;1.02;0.90;;;16.00;55.40;;;;;;6213914;23;20008;-73
2021/04/11 02:59:30;;;;;;;1.70;1.50;;;16.00;55.50;;;;;;6214120;23;20062;-73
2021/04/11 03:01:58;;;;;;;1.70;1.30;;;15.90;55.50;;;;;;6213549;23;20001;-73
2021/04/11 03:04:25;;;;;;;2.38;1.60;;;15.90;55.50;;;;;;6213823;23;20008;-73
2021/04/11 03:06:59;;;;;;;2.30;1.20;;;15.90;55.50;;;;;;6213696;23;20004;-73
2021/04/11 03:09:43;;;;;;;2.03;1.30;;;15.90;55.40;;;;;;6213570;23;20004;-73
2021/04/11 03:12:09;;;;;;;1.85;1.55;;;15.90;55.40;;;;;;6214014;23;20079;-73
2021/04/11 03:14:38;;;;;;;1.65;1.30;;;15.90;55.30;;;;;;6213803;23;20000;-73
2021/04/11 03:17:09;;;;;;;1.85;1.27;;;15.90;55.40;;;;;;6213661;23;20030;-73
2021/04/11 03:19:39;;;;;;;2.40;1.38;;;15.90;55.40;;;;;;6213574;23;20071;-73
2021/04/11 03:22:05;;;;;;;1.65;1.20;;;15.90;55.40;;;;;;6213245;23;20083;-73
2021/04/11 03:24:30;;;;;;;2.22;1.23;;;15.90;55.40;;;;;;6214420;23;20517;-74
2021/04/11 03:27:04;;;;;;;1.60;1.20;;;15.90;55.40;;;;;;6187349;23;20008;-73
2021/04/11 03:29:56;;;;;;;1.63;1.30;;;15.80;55.30;;;;;;6214032;23;20005;-73
2021/04/11 03:32:51;;;;;;;2.38;1.10;;;15.80;55.30;;;;;;6213158;23;20000;-73
2021/04/11 03:35:25;;;;;;;1.73;1.48;;;15.80;55.40;;;;;;6213540;23;20000;-73
2021/04/11 03:37:52;;;;;;;1.20;1.00;;;15.80;55.40;;;;;;6213683;23;20087;-73
2021/04/11 03:40:26;;;;;;;2.13;1.40;;;15.80;55.30;;;;;;6213468;23;20027;-73
2021/04/11 03:42:59;;;;;;;1.20;0.98;;;15.80;55.30;;;;;;6213134;23;20045;-73
2021/04/11 03:45:28;;;;;;;1.55;1.00;;;15.70;55.20;;;;;;6213776;23;20001;-73
2021/04/11 03:47:59;;;;;;;1.88;0.95;;;15.80;55.30;;;;;;6186729;23;20020;-73
2021/04/11 03:50:31;;;;;;;2.00;1.17;;;15.80;55.30;;;;;;6213417;23;20441;-73
2021/04/11 03:53:01;;;;;;;1.08;0.95;;;15.70;55.30;;;;;;6213428;23;20076;-73
2021/04/11 03:55:33;;;;;;;1.85;0.93;;;15.70;55.20;;;;;;6215000;23;20047;-73
2021/04/11 03:58:04;;;;;;;2.10;0.90;;;15.70;55.20;;;;;;6215578;23;20054;-73
2021/04/11 04:00:33;;;;;;;1.40;0.80;;;15.70;55.20;;;;;;6215445;23;20004;-73
2021/04/11 04:03:06;;;;;;;1.40;1.10;;;15.70;55.20;;;;;;6215431;23;20088;-73
2021/04/11 04:05:34;;;;;;;1.23;0.80;;;15.70;55.20;;;;;;6215974;23;20066;-73
2021/04/11 04:08:00;;;;;;;1.55;0.80;;;15.70;55.20;;;;;;6215028;23;20453;-73
2021/04/11 04:10:31;;;;;;;0.93;0.80;;;15.70;55.20;;;;;;6215607;23;20127;-73
2021/04/11 04:13:32;;;;;;;0.93;0.80;;;15.70;55.20;;;;;;6215359;23;20016;-73
2021/04/11 04:16:42;;;;;;;1.20;0.70;;;15.70;55.20;;;;;;6215131;23;20000;-73
2021/04/11 04:19:22;;;;;;;0.82;0.70;;;15.60;55.20;;;;;;6168589;23;20071;-73
2021/04/11 04:22:26;;;;;;;1.15;0.70;;;15.70;55.20;;;;;;6215098;23;20005;-73
2021/04/11 04:25:12;;;;;;;1.80;0.80;;;15.60;55.20;;;;;;6215639;23;20027;-73
2021/04/11 04:28:25;;;;;;;1.42;0.80;;;15.60;55.10;;;;;;6215354;23;19996;-73
2021/04/11 04:30:55;;;;;;;1.05;0.80;;;15.60;55.20;;;;;;6094073;23;20010;-73
2021/04/11 04:33:41;;;;;;;1.83;0.80;;;15.60;55.10;;;;;;6094425;23;20439;-73
2021/04/11 04:36:18;;;;;;;1.35;0.60;;;15.60;55.10;;;;;;6170681;23;20311;-73
2021/04/11 04:38:52;;;;;;;1.08;0.88;;;15.60;55.10;;;;;;6214901;23;20087;-73
2021/04/11 04:41:36;;;;;;;2.00;0.90;;;15.60;55.10;;;;;;6214704;23;19997;-73
2021/04/11 04:44:21;;;;;;;0.95;0.70;;;15.60;55.10;;;;;;6214847;23;20008;-73
2021/04/11 04:46:57;;;;;;;0.90;0.60;;;15.60;55.00;;;;;;6188628;23;20010;-73
2021/04/11 04:49:37;;;;;;;1.70;0.93;;;15.60;55.10;;;;;;6214921;23;20004;-73
2021/04/11 04:52:11;;;;;;;2.08;0.70;;;15.50;55.10;;;;;;6215620;23;20000;-73
2021/04/11 04:55:04;;;;;;;1.13;0.70;;;15.50;55.00;;;;;;6215416;23;20449;-73
2021/04/11 04:57:37;;;;;;;1.35;0.90;;;15.50;55.00;;;;;;6215020;23;20075;-73
2021/04/11 05:00:37;;;;;;;1.63;0.75;;;15.50;55.10;;;;;;6214382;23;20012;-73
2021/04/11 05:03:05;;;;;;;0.88;0.63;;;15.50;55.10;;;;;;6112880;23;20012;-73
2021/04/11 05:05:34;;;;;;;1.40;0.70;;;15.50;55.60;;;;;;6214611;23;20075;-73
2021/04/11 05:08:12;;;;;;;1.58;0.60;;;15.50;55.00;;;;;;6214717;23;20011;-73
2021/04/11 05:10:59;;;;;;;0.90;0.55;;;15.50;55.00;;;;;;6215545;23;20005;-73
2021/04/11 05:13:26;;;;;;;2.00;0.68;;;15.50;55.00;;;;;;6214984;23;20011;-73
2021/04/11 05:16:04;;;;;;;2.28;0.90;;;15.50;55.10;;;;;;6214871;23;19996;-73
2021/04/11 05:18:49;;;;;;;1.00;0.55;;;15.50;55.10;;;;;;6214576;23;20497;-73
2021/04/11 05:21:19;;;;;;;1.17;0.75;;;15.50;55.10;;;;;;6187875;23;20076;-73
2021/04/11 05:24:07;;;;;;;1.17;0.60;;;15.40;55.00;;;;;;6214760;23;20018;-73
2021/04/11 05:26:41;;;;;;;1.30;0.55;;;15.40;55.00;;;;;;6187820;23;20009;-73
2021/04/11 05:29:25;;;;;;;1.08;0.57;;;15.50;55.10;;;;;;6214991;23;20429;-73
2021/04/11 05:31:54;;;;;;;1.02;0.70;;;15.40;55.00;;;;;;6214596;23;19996;-73
2021/04/11 05:34:21;;;;;;;1.60;0.70;;;15.40;55.00;;;;;;6214753;23;20051;-73
2021/04/11 05:37:04;;;;;;;0.80;0.50;;;15.40;55.00;;;;;;6187905;23;20001;-73
2021/04/11 05:39:44;;;;;;;1.00;0.57;;;15.40;55.00;;;;;;6214280;23;20005;-73
2021/04/11 05:42:16;;;;;;;1.75;0.65;;;15.40;55.00;;;;;;6215105;23;20079;-73
2021/04/11 05:44:55;;;;;;;1.75;0.70;;;15.40;55.00;;;;;;6214635;23;20004;-73
2021/04/11 05:47:41;;;;;;;1.02;0.60;;;15.40;55.00;;;;;;6214460;23;20052;-73
2021/04/11 05:50:27;;;;;;;1.67;0.60;;;15.40;55.00;;;;;;6215117;23;20008;-73
2021/04/11 05:53:06;;;;;;;1.75;0.70;;;15.40;55.00;;;;;;6213830;23;20015;-73
2021/04/11 05:55:38;;;;;;;1.15;0.60;;;15.40;55.00;;;;;;6187850;23;20004;-73
2021/04/11 05:58:19;;;;;;;1.20;0.40;;;15.40;55.00;;;;;;6214244;23;20011;-73
2021/04/11 06:00:54;;;;;;;1.55;0.50;;;15.30;55.00;;;;;;6214503;23;20375;-73
2021/04/11 06:03:23;;;;;;;1.33;0.73;;;15.30;54.90;;;;;;6214331;23;20012;-73
2021/04/11 06:06:01;;;;;;;1.27;0.50;;;15.30;54.90;;;;;;6214175;23;20442;-73
2021/04/11 06:08:30;;;;;;;0.85;0.50;;;15.30;55.00;;;;;;6187594;23;20004;-73
2021/04/11 06:11:19;;;;;;;1.08;0.68;;;15.30;54.90;;;;;;6214421;23;20004;-73
2021/04/11 06:13:51;;;;;;;1.85;0.65;;;15.30;55.00;;;;;;6214292;23;20008;-74
2021/04/11 06:16:20;;;;;;;2.80;0.57;;;15.30;54.90;;;;;;6214107;23;20015;-73
2021/04/11 06:18:52;;;;;;;1.42;0.57;;;15.30;54.90;;;;;;6213791;23;20005;-73
2021/04/11 06:21:48;;;;;;;1.48;0.75;;;15.30;55.00;;;;;;6213796;23;19997;-73
2021/04/11 06:24:24;;;;;;;1.63;0.50;;;15.30;55.00;;;;;;6198117;23;20043;-73
2021/04/11 06:27:16;;;;;;;0.70;0.45;;;15.20;54.90;;;;;;6214112;23;20001;-73
2021/04/11 06:29:57;;;;;;;1.15;0.50;;;15.20;54.90;;;;;;6214210;23;20007;-73
2021/04/11 06:32:25;;;;;;;2.75;0.95;;;15.20;55.00;;;;;;6213676;23;20441;-74
2021/04/11 06:35:04;;;;;;;1.73;0.52;;;15.30;55.10;;;;;;6214088;23;20075;-75
2021/04/11 06:37:32;;;;;;;1.55;0.50;;;15.30;55.30;;;;;;6214095;23;20013;-74
2021/04/11 06:40:01;;;;;;;2.05;0.65;;;15.30;55.40;;;;;;6213684;23;20071;-75
2021/04/11 06:42:42;;;;;;;1.02;0.40;;;15.30;55.50;;;;;;6187125;23;20357;-73
2021/04/11 06:45:24;;;;;;;3.95;0.60;;;15.30;55.40;;;;;;6214163;23;20004;-74
2021/04/11 06:47:58;;;;;;;4.20;1.00;;;15.40;55.50;;;;;;6213883;23;20005;-74
2021/04/11 06:51:01;;;;;;;2.15;0.60;;;15.40;55.50;;;;;;6213429;23;20024;-74
2021/04/11 06:53:38;;;;;;;1.67;0.65;;;15.50;55.50;;;;;;6213731;23;20499;-75
2021/04/11 06:56:19;;;;;;;1.55;0.40;;;15.60;55.40;;;;;;6214036;23;20385;-78
2021/04/11 06:59:29;;;;;;;1.05;0.40;;;15.60;55.40;;;;;;6212255;23;20028;-74
2021/04/11 07:02:20;;;;;;;1.92;0.50;;;15.70;55.90;;;;;;6212419;23;20005;-76
2021/04/11 07:05:07;;;;;;;1.40;0.75;;;15.80;55.20;;;;;;6213368;23;20011;-74
2021/04/11 07:08:12;;;;;;;1.08;0.50;;;15.90;55.10;;;;;;6210623;23;20485;-75
2021/04/11 07:10:50;;;;;;;1.40;0.60;;;16.00;55.00;;;;;;6156900;23;20005;-75
2021/04/11 07:13:34;;;;;;;1.33;0.50;;;16.10;54.80;;;;;;6186677;23;20001;-73
2021/04/11 07:16:25;;;;;;;2.47;0.60;;;16.20;54.60;;;;;;6186543;23;20016;-76
2021/04/11 07:19:12;;;;;;;2.10;0.50;;;16.40;54.40;;;;;;6197129;23;20005;-73
2021/04/11 07:22:02;;;;;;;1.70;0.65;;;16.50;54.20;;;;;;6212179;23;20005;-72
2021/04/11 07:24:43;;;;;;;1.95;0.60;;;16.60;53.90;;;;;;6213685;23;20009;-73
2021/04/11 07:27:35;;;;;;;15.65;3.95;;;16.80;54.50;;;;;;6213350;23;20007;-73
2021/04/11 07:30:19;;;;;;;12.63;3.30;;;16.90;54.30;;;;;;6209106;23;20011;-72
2021/04/11 07:32:53;;;;;;;8.85;1.83;;;17.00;54.60;;;;;;6213822;23;20004;-71
2021/04/11 07:35:56;;;;;;;8.35;1.88;;;17.10;54.90;;;;;;6213882;23;20051;-71
2021/04/11 07:38:31;;;;;;;16.85;1.77;;;17.20;54.60;;;;;;6211182;23;20016;-72
2021/04/11 07:41:33;;;;;;;6.45;2.03;;;17.30;54.40;;;;;;6212667;23;19996;-72
2021/04/11 07:44:16;;;;;;;7.00;2.60;;;17.30;54.20;;;;;;6212614;23;20082;-72
2021/04/11 07:47:11;;;;;;;6.70;2.55;;;17.40;54.00;;;;;;6212255;23;19996;-72
2021/04/11 07:49:56;;;;;;;4.82;1.80;;;17.50;53.80;;;;;;6186355;23;20036;-71
2021/04/11 07:52:27;;;;;;;8.40;1.95;;;17.60;53.70;;;;;;6212391;23;20000;-71
2021/04/11 07:55:06;;;;;;;7.18;1.65;;;17.70;53.90;;;;;;6212987;23;20004;-73
2021/04/11 07:57:57;;;;;;;3.95;1.25;;;17.80;53.70;;;;;;6212753;23;20001;-71
2021/04/11 08:00:40;;;;;;;6.40;1.42;;;17.90;53.40;;;;;;6210039;23;19996;-71
2021/04/11 08:03:37;;;;;;;5.55;0.98;;;17.90;53.20;;;;;;6212421;23;20115;-72
2021/04/11 08:06:31;;;;;;;3.33;1.00;;;18.00;53.20;;;;;;6212916;23;19997;-71
2021/04/11 08:09:15;;;;;;;5.07;1.67;;;18.10;52.90;;;;;;6211814;23;20004;-74
2021/04/11 08:11:41;;;;;;;6.35;1.10;;;18.10;52.60;;;;;;6213000;23;20007;-76
2021/04/11 08:14:21;;;;;;;3.67;0.98;;;18.10;52.50;;;;;;6213033;23;20024;-75
2021/04/11 08:16:53;;;;;;;4.55;0.93;;;18.20;52.60;;;;;;6186517;23;20426;-75
2021/04/11 08:19:40;;;;;;;4.55;1.27;;;18.20;52.20;;;;;;6213460;23;20001;-73
2021/04/11 08:22:36;;;;;;;6.18;0.98;;;18.20;52.00;;;;;;6213086;23;20012;-73
2021/04/11 08:25:14;;;;;;;6.20;0.80;;;18.30;51.80;;;;;;6213130;23;20025;-73
2021/04/11 08:28:00;;;;;;;5.28;1.08;;;18.30;51.70;;;;;;6213004;23;20019;-75
2021/04/11 08:30:44;;;;;;;6.03;0.98;;;18.40;51.60;;;;;;6185975;23;20001;-73
2021/04/11 08:33:47;;;;;;;10.40;1.20;;;18.50;52.20;;;;;;6213429;23;20467;-73
2021/04/11 08:36:30;;;;;;;7.85;1.20;;;18.50;52.40;;;;;;6213307;23;20005;-73
2021/04/11 08:39:15;;;;;;;5.43;1.20;;;18.60;52.30;;;;;;6212864;23;20008;-72
2021/04/11 08:42:08;;;;;;;9.07;1.70;;;18.60;52.00;;;;;;6214132;23;20103;-73
2021/04/11 08:44:49;;;;;;;4.78;0.88;;;18.70;51.80;;;;;;6210859;23;20004;-73
2021/04/11 08:47:45;;;;;;;6.35;1.40;;;18.80;51.60;;;;;;6214619;23;20009;-73
2021/04/11 08:50:20;;;;;;;4.97;0.85;;;18.80;51.50;;;;;;6188468;23;20318;-72
2021/04/11 08:53:05;;;;;;;;;;;18.90;51.70;;;;;;6210899;23;20005;-73
2021/04/11 08:55:38;;;;;;;4.85;0.70;;;18.90;51.40;;;;;;6214713;23;19954;-76
2021/04/11 08:58:34;;;;;;;6.75;1.33;;;19.00;51.50;;;;;;6215216;23;20001;-75
2021/04/11 09:01:23;;;;;;;5.18;1.05;;;19.10;56.40;;;;;;6213618;23;20476;-73
2021/04/11 09:04:29;;;;;;;3.85;1.13;;;19.20;54.20;;;;;;6198629;23;20012;-73
2021/04/11 09:07:20;;;;;;;5.57;0.98;;;19.20;52.60;;;;;;6213489;23;20012;-74
2021/04/11 09:10:09;;;;;;;5.03;0.85;;;19.20;51.60;;;;;;6153864;23;20007;-73
2021/04/11 09:12:59;;;;;;;3.65;1.23;;;19.20;51.00;;;;;;6214580;23;20015;-74
2021/04/11 09:15:30;;;;;;;3.08;1.08;;;19.20;51.30;;;;;;6214555;23;20072;-73
2021/04/11 09:18:11;;;;;;;3.40;0.70;;;19.20;51.10;;;;;;6214921;23;20000;-74
2021/04/11 09:20:58;;;;;;;4.05;0.80;;;19.20;50.90;;;;;;6213797;23;20119;-75
2021/04/11 09:23:35;;;;;;;6.95;0.95;;;19.20;50.80;;;;;;6214650;23;20013;-73
2021/04/11 09:26:23;;;;;;;5.43;0.82;;;19.30;50.50;;;;;;6214184;23;20636;-73
2021/04/11 09:29:13;;;;;;;7.65;0.82;;;19.40;50.50;;;;;;6187932;23;20083;-73
2021/04/11 09:31:57;;;;;;;6.40;1.02;;;19.30;50.30;;;;;;6210673;23;20471;-72
2021/04/11 09:34:57;;;;;;;4.47;1.00;;;19.40;50.50;;;;;;6214262;23;20140;-73
2021/04/11 09:37:29;;;;;;;5.25;0.80;;;19.50;50.00;;;;;;6214881;23;20036;-73
2021/04/11 09:40:13;;;;;;;6.90;0.90;;;19.50;49.90;;;;;;6210847;23;20016;-73
2021/04/11 09:42:50;;;;;;;5.88;1.00;;;19.50;49.70;;;;;;6213634;23;20019;-75
2021/04/11 09:45:22;;;;;;;8.57;4.28;;;19.60;49.80;;;;;;6214055;23;20071;-73
2021/04/11 09:47:48;;;;;;;11.63;4.50;;;19.60;50.20;;;;;;6214755;23;20004;-74
2021/04/11 09:50:40;;;;;;;16.15;6.97;;;19.70;50.30;;;;;;6213846;23;20418;-73
2021/04/11 09:53:26;;;;;;;15.50;5.25;;;19.60;50.60;;;;;;6214472;23;20000;-77
2021/04/11 09:56:12;;;;;;;10.77;5.22;;;19.60;50.40;;;;;;6213954;23;20050;-79
2021/04/11 09:59:15;;;;;;;13.25;5.55;;;19.60;50.20;;;;;;6214660;23;20001;-76
2021/04/11 10:01:46;;;;;;;11.35;4.45;;;19.70;51.30;;;;;;6213374;23;20004;-75
2021/04/11 10:04:52;;;;;;;9.73;3.70;;;19.60;49.60;;;;;;6213931;23;20008;-77
2021/04/11 10:07:42;;;;;;;8.52;3.47;;;19.60;49.10;;;;;;6214164;23;20004;-77
2021/04/11 10:10:14;;;;;;;9.68;4.07;;;19.60;48.80;;;;;;6213301;23;20071;-76
2021/04/11 10:12:57;;;;;;;6.07;2.97;;;19.60;48.60;;;;;;6214212;23;20083;-77
2021/04/11 10:15:41;;;;;;;8.27;2.90;;;19.60;48.60;;;;;;6186830;23;20055;-76
2021/04/11 10:18:10;;;;;;;5.30;2.03;;;19.70;48.70;;;;;;6214215;23;20082;-76
2021/04/11 10:21:08;;;;;;;5.55;2.28;;;19.70;48.50;;;;;;6213673;23;20000;-76
2021/04/11 10:23:37;;;;;;;5.78;2.05;;;19.70;48.50;;;;;;6213855;23;20013;-74
2021/04/11 10:26:18;;;;;;;5.22;2.20;;;19.80;48.40;;;;;;6186792;23;20023;-78
2021/04/11 10:28:53;;;;;;;4.85;1.40;;;19.80;48.40;;;;;;6214035;23;20034;-77
2021/04/11 10:31:40;;;;;;;6.50;1.50;;;19.80;48.30;;;;;;6212579;23;20001;-77
2021/04/11 10:34:24;;;;;;;6.30;1.48;;;19.80;48.10;;;;;;6213903;23;20016;-75
2021/04/11 10:36:55;;;;;;;3.80;1.10;;;19.80;48.20;;;;;;6213673;23;20001;-74
2021/04/11 10:39:29;;;;;;;4.15;1.70;;;19.80;48.00;;;;;;6214082;23;20007;-76
2021/04/11 10:42:10;;;;;;;7.15;1.17;;;19.80;48.00;;;;;;6213265;23;20027;-77
2021/04/11 10:45:12;;;;;;;4.90;1.08;;;19.80;48.20;;;;;;6212739;23;20036;-76
2021/04/11 10:47:49;;;;;;;7.95;1.23;;;19.70;47.80;;;;;;6213970;23;20084;-76
2021/04/11 10:50:34;;;;;;;12.15;1.20;;;19.80;48.20;;;;;;6213868;23;20005;-76
2021/04/11 10:53:35;;;;;;;4.82;1.10;;;19.80;48.00;;;;;;6213580;23;20368;-75
2021/04/11 10:56:15;;;;;;;8.02;1.40;;;19.90;47.80;;;;;;6214053;23;19996;-81
2021/04/11 10:59:05;;;;;;;8.18;1.00;;;20.00;48.50;;;;;;6213049;23;20001;-79
2021/04/11 11:02:14;;;;;;;6.05;1.20;;;20.10;48.30;;;;;;6185538;23;20005;-83
2021/04/11 11:04:59;;;;;;;4.70;1.42;;;20.20;48.20;;;;;;6213503;23;20042;-81
2021/04/11 11:07:49;;;;;;;3.03;0.80;;;20.20;47.90;;;;;;6214280;23;20503;-75
2021/04/11 11:10:14;;;;;;;3.80;1.17;;;20.30;47.60;;;;;;6185985;23;20044;-78
2021/04/11 11:13:18;;;;;;;4.47;1.00;;;20.30;47.00;;;;;;6213755;23;20051;-75
2021/04/11 11:16:19;;;;;;;2.58;0.88;;;20.20;47.00;;;;;;6213367;23;20381;-82
2021/04/11 11:19:11;;;;;;;4.65;0.82;;;20.20;46.40;;;;;;6092758;23;20006;-78
2021/04/11 11:22:01;;;;;;;1.98;0.82;;;20.20;46.60;;;;;;6209936;23;20396;-77
2021/04/11 11:24:52;;;;;;;4.20;0.90;;;20.30;46.60;;;;;;6214118;23;20090;-76
2021/04/11 11:27:29;;;;;;;2.97;0.82;;;20.40;46.70;;;;;;6213508;23;20076;-74
2021/04/11 11:30:36;;;;;;;3.90;0.90;;;20.50;46.90;;;;;;6186621;23;20009;-74
2021/04/11 11:33:25;;;;;;;3.47;0.75;;;20.60;46.80;;;;;;6169807;23;20013;-74
2021/04/11 11:36:04;;;;;;;7.63;0.75;;;20.60;46.40;;;;;;6154590;23;20008;-74
2021/04/11 11:38:41;;;;;;;4.13;0.98;;;20.60;46.00;;;;;;6213434;23;20016;-77
2021/04/11 11:41:10;;;;;;;8.48;0.90;;;20.50;46.40;;;;;;6186634;23;20103;-76
2021/04/11 11:43:52;;;;;;;3.47;0.82;;;20.40;46.40;;;;;;6211811;23;20120;-73
2021/04/11 11:46:23;;;;;;;3.70;0.70;;;20.30;46.50;;;;;;6211705;23;20425;-76
2021/04/11 11:49:21;;;;;;;6.43;1.15;;;20.30;46.60;;;;;;6212368;23;20029;-73
2021/04/11 11:51:58;;;;;;;3.47;0.90;;;20.20;47.00;;;;;;6212470;23;20499;-75
2021/04/11 11:54:34;;;;;;;1.95;0.57;;;20.20;46.80;;;;;;6212653;23;20004;-76
2021/04/11 11:57:16;;;;;;;4.78;0.70;;;20.30;47.70;;;;;;6213146;23;20458;-73
2021/04/11 11:59:57;;;;;;;5.28;0.88;;;20.30;47.00;;;;;;6209962;23;20434;-73
2021/04/11 12:02:34;;;;;;;3.15;1.13;;;20.30;47.30;;;;;;6211256;23;20020;-75
2021/04/11 12:05:06;;;;;;;4.38;0.85;;;20.20;47.70;;;;;;6212164;23;19997;-76
2021/04/11 12:07:44;;;;;;;2.60;0.85;;;20.20;48.00;;;;;;6212471;23;20472;-76
2021/04/11 12:10:35;;;;;;;3.55;0.77;;;20.30;48.10;;;;;;6211390;23;20070;-74
2021/04/11 12:13:28;;;;;;;2.65;0.77;;;20.30;48.10;;;;;;6211073;23;20005;-76
2021/04/11 12:16:18;;;;;;;2.28;0.70;;;20.30;48.10;;;;;;6186602;23;20019;-76
2021/04/11 12:19:00;;;;;;;2.20;0.60;;;20.30;48.20;;;;;;6215305;23;20056;-74
2021/04/11 12:21:33;;;;;;;4.65;0.80;;;20.30;48.20;;;;;;6214833;23;20035;-74
2021/04/11 12:24:20;;;;;;;3.20;0.60;;;20.40;48.30;;;;;;6215812;23;20016;-75
2021/04/11 12:26:53;;;;;;;2.33;0.70;;;20.40;48.20;;;;;;6215118;23;20084;-75
2021/04/11 12:29:31;;;;;;;2.67;1.10;;;20.30;48.30;;;;;;6214751;23;20488;-75
2021/04/11 12:32:00;;;;;;;2.45;0.80;;;20.30;48.50;;;;;;6214089;23;20333;-72
2021/04/11 12:34:37;;;;;;;4.00;0.98;;;20.20;48.50;;;;;;6214642;23;20005;-75
2021/04/11 12:37:24;;;;;;;3.08;0.77;;;20.30;48.60;;;;;;6187260;23;20067;-74
2021/04/11 12:40:07;;;;;;;3.08;0.90;;;20.40;48.40;;;;;;6214605;23;20083;-75
2021/04/11 12:42:56;;;;;;;1.63;0.60;;;20.40;48.60;;;;;;6214779;23;20044;-75
2021/04/11 12:45:31;;;;;;;4.28;0.88;;;20.50;48.30;;;;;;6213711;23;19997;-75
2021/04/11 12:48:07;;;;;;;1.60;0.70;;;20.40;48.20;;;;;;6214466;23;20001;-76
2021/04/11 12:50:59;;;;;;;3.67;0.70;;;20.50;48.50;;;;;;6214272;23;20005;-75
2021/04/11 12:54:09;;;;;;;2.28;0.60;;;20.50;49.10;;;;;;6214666;23;20005;-75
2021/04/11 12:56:43;;;;;;;2.53;0.50;;;20.50;48.50;;;;;;6215202;23;20381;-75
2021/04/11 12:59:20;;;;;;;2.05;0.63;;;20.40;48.40;;;;;;6215021;23;20434;-74
2021/04/11 13:01:48;;;;;;;1.40;0.52;;;20.40;48.40;;;;;;6214133;23;20040;-75
2021/04/11 13:04:24;;;;;;;4.32;0.50;;;20.40;48.40;;;;;;6188460;23;20445;-74
2021/04/11 13:07:24;;;;;;;5.18;0.60;;;20.40;48.60;;;;;;6214186;23;20001;-73
2021/04/11 13:10:17;;;;;;;3.10;0.90;;;20.40;48.70;;;;;;6214748;23;20009;-74
2021/04/11 13:13:27;;;;;;;4.35;0.50;;;20.30;48.90;;;;;;6187491;23;20091;-74
2021/04/11 13:16:12;;;;;;;3.80;1.17;;;20.30;48.60;;;;;;6168617;23;20458;-75
2021/04/11 13:19:08;;;;;;;2.05;0.60;;;20.20;48.50;;;;;;6215275;23;20005;-75
2021/04/11 13:21:41;;;;;;;1.35;0.60;;;20.30;49.20;;;;;;6215291;23;19997;-76
2021/04/11 13:24:41;;;;;;;3.33;0.77;;;20.30;48.70;;;;;;6214711;23;20060;-81
2021/04/11 13:27:39;;;;;;;4.43;0.70;;;20.30;48.60;;;;;;6214355;23;20080;-75
2021/04/11 13:30:15;;;;;;;2.88;1.00;;;20.20;49.00;;;;;;6214374;23;19997;-76
2021/04/11 13:32:59;;;;;;;;;;;20.10;49.20;;;;;;6211186;23;20139;-76
2021/04/11 13:35:34;;;;;;;9.13;1.00;;;20.10;49.00;;;;;;6185565;23;19904;-76
2021/04/11 13:38:14;;;;;;;11.32;1.30;;;20.20;49.10;;;;;;6213653;23;20019;-74
2021/04/11 13:40:41;;;;;;;22.45;3.30;;;20.20;49.10;;;;;;6214121;23;20015;-74
2021/04/11 13:43:39;;;;;;;29.80;3.45;;;20.20;49.00;;;;;;6187611;23;20019;-76
2021/04/11 13:46:17;;;;;;;27.17;3.67;;;20.30;48.90;;;;;;6214619;23;20004;-75
2021/04/11 13:49:00;;;;;;;42.65;3.83;;;20.30;48.70;;;;;;6213958;23;20031;-75